Time;durP1;ratioP1;P1;durP2;ratioP2;P2;SDS_P1;SDS_P2;PMS_P1;PMS_P2;Temp;Humidity;BMP_temperature;BMP_pressure;BME280_temperature;BME280_humidity;BME280_pressure;Samples;Min_cycle;Max_cycle;Signal;HPM_P1;HPM_P2
2022/01/31 00:02:14;;;;;;;;;8.50;7.00;;;;;9.21;53.80;101814.75;4993838;27;45445;-69
2022/01/31 00:04:39;;;;;;;;;11.00;6.50;;;;;9.23;53.74;101811.31;4993131;27;45319;-69
2022/01/31 00:07:05;;;;;;;;;6.75;5.00;;;;;9.38;53.12;101851.16;4993487;27;45433;-69
2022/01/31 00:09:31;;;;;;;;;10.25;5.00;;;;;9.36;53.19;101855.50;4992808;27;45377;-70
2022/01/31 00:12:02;;;;;;;;;9.25;7.25;;;;;8.89;53.90;101754.53;4993760;27;45370;-70
2022/01/31 00:14:32;;;;;;;;;9.50;6.00;;;;;9.24;54.30;101801.59;4993232;27;46158;-69
2022/01/31 00:16:59;;;;;;;;;8.00;8.00;;;;;9.13;53.48;101766.38;4993462;27;45365;-70
2022/01/31 00:19:24;;;;;;;;;4.50;2.75;;;;;9.03;53.76;101751.69;4976318;28;45351;-69
2022/01/31 00:21:49;;;;;;;;;5.00;4.50;;;;;9.15;53.51;101761.13;4993691;27;45509;-69
2022/01/31 00:24:15;;;;;;;;;10.50;5.00;;;;;9.10;54.10;101749.34;4992713;27;46130;-68
2022/01/31 00:26:40;;;;;;;;;11.50;7.00;;;;;9.35;53.95;101786.09;4992977;27;45233;-67
2022/01/31 00:29:06;;;;;;;;;8.25;8.25;;;;;9.31;53.44;101776.13;4993055;27;45492;-68
2022/01/31 00:31:32;;;;;;;;;11.25;9.00;;;;;9.39;54.20;101786.31;4992204;28;45548;-69
2022/01/31 00:33:57;;;;;;;;;9.75;5.00;;;;;9.39;54.03;101782.75;4992641;27;46248;-68
2022/01/31 00:36:22;;;;;;;;;8.75;5.50;;;;;9.18;54.65;101750.63;4992616;27;45784;-68
2022/01/31 00:38:48;;;;;;;;;5.50;5.50;;;;;9.35;54.65;101767.41;4993293;27;45854;-69
2022/01/31 00:41:13;;;;;;;;;8.25;6.00;;;;;9.34;54.77;101776.28;4975604;28;45381;-68
2022/01/31 00:43:38;;;;;;;;;4.00;4.00;;;;;9.12;54.33;101755.66;4992237;27;46180;-67
2022/01/31 00:46:11;;;;;;;;;6.50;4.75;;;;;9.32;53.98;101789.53;4993102;28;45705;-68
2022/01/31 00:48:42;;;;;;;;;7.75;6.00;;;;;9.16;54.69;101758.53;4993398;28;45572;-67
2022/01/31 00:51:08;;;;;;;;;5.75;4.25;;;;;9.06;54.30;101750.94;4993490;28;45354;-70
2022/01/31 00:53:34;;;;;;;;;4.50;2.50;;;;;9.04;54.70;101744.59;4992817;28;47076;-69
2022/01/31 00:55:59;;;;;;;;;10.00;4.75;;;;;9.13;53.77;101754.81;4993056;27;45523;-69
2022/01/31 00:58:24;;;;;;;;;5.25;4.50;;;;;9.28;54.04;101790.22;4993350;27;45441;-69
2022/01/31 01:00:50;;;;;;;;;5.00;5.00;;;;;9.07;54.30;101750.09;4993814;27;45621;-67
2022/01/31 01:03:15;;;;;;;;;5.75;4.00;;;;;9.23;54.11;101757.97;5038789;27;45404;-68
2022/01/31 01:05:41;;;;;;;;;6.00;4.25;;;;;9.22;53.71;101731.25;4992970;27;45347;-69
2022/01/31 01:08:06;;;;;;;;;12.25;4.50;;;;;9.35;53.76;101738.97;4992608;28;45405;-68
2022/01/31 01:10:32;;;;;;;;;4.00;3.00;;;;;9.01;54.14;101683.16;4992863;28;45532;-67
2022/01/31 01:12:57;;;;;;;;;5.00;5.00;;;;;9.13;53.94;101718.41;4992347;28;46386;-69
2022/01/31 01:15:22;;;;;;;;;4.00;4.00;;;;;9.29;53.49;101743.13;4993152;27;45379;-68
2022/01/31 01:17:48;;;;;;;;;6.00;4.25;;;;;9.26;53.92;101721.66;4993338;27;45833;-67
2022/01/31 01:20:17;;;;;;;;;9.50;3.75;;;;;9.17;54.04;101711.44;4993465;27;45447;-70
2022/01/31 01:22:44;;;;;;;;;4.00;3.00;;;;;9.22;55.02;101712.56;4992772;27;46200;-69
2022/01/31 01:25:11;;;;;;;;;1.75;1.75;;;;;8.97;55.22;101686.50;4974972;27;45601;-69
2022/01/31 01:27:37;;;;;;;;;4.00;4.00;;;;;9.16;54.89;101701.66;4992068;28;45478;-69
2022/01/31 01:30:04;;;;;;;;;7.75;3.75;;;;;9.19;55.18;101691.13;4992654;27;45433;-69
2022/01/31 01:32:34;;;;;;;;;4.50;2.50;;;;;9.02;54.58;101640.59;4992018;27;46912;-68
2022/01/31 01:35:03;;;;;;;;;4.50;4.00;;;;;9.23;55.15;101674.41;4992158;28;45420;-69
2022/01/31 01:37:28;;;;;;;;;6.50;3.00;;;;;9.00;55.10;101636.94;4992243;28;45387;-68
2022/01/31 01:39:54;;;;;;;;;3.75;3.75;;;;;9.19;55.18;101649.38;4993165;28;45411;-69
2022/01/31 01:42:19;;;;;;;;;2.00;2.00;;;;;9.21;55.62;101657.44;4992211;27;45528;-68
2022/01/31 01:44:51;;;;;;;;;5.75;1.75;;;;;9.22;55.41;101640.59;4992509;28;45430;-69
2022/01/31 01:47:24;;;;;;;;;0.00;0.00;;;;;9.25;56.00;101639.84;4974845;28;45579;-70
2022/01/31 01:49:51;;;;;;;;;3.25;1.75;;;;;9.02;56.00;101603.28;4991611;27;45646;-66
2022/01/31 01:52:17;;;;;;;;;2.50;2.50;;;;;9.19;56.49;101632.47;4991877;27;45434;-69
2022/01/31 01:54:45;;;;;;;;;4.25;2.00;;;;;9.24;56.39;101644.25;4992019;28;45433;-69
2022/01/31 01:57:11;;;;;;;;;5.50;2.00;;;;;9.13;56.06;101630.41;4992158;27;45499;-69
2022/01/31 01:59:37;;;;;;;;;8.00;3.75;;;;;7.58;56.44;101373.69;4992069;27;45566;-69
2022/01/31 02:02:05;;;;;;;;;5.75;3.00;;;;;8.90;57.08;101609.78;4992094;28;46201;-69
2022/01/31 02:04:31;;;;;;;;;7.00;4.75;;;;;9.16;57.05;101640.34;4991905;27;45630;-67
2022/01/31 02:06:57;;;;;;;;;10.00;1.50;;;;;9.20;57.80;101647.63;4991936;28;45414;-69
2022/01/31 02:09:24;;;;;;;;;7.75;4.00;;;;;9.25;57.61;101642.50;4991811;27;45458;-69
2022/01/31 02:11:54;;;;;;;;;4.50;3.25;;;;;9.25;58.10;101629.16;4991850;27;45357;-69
2022/01/31 02:14:20;;;;;;;;;3.00;1.75;;;;;9.10;57.67;101594.72;4991751;27;45441;-67
2022/01/31 02:16:48;;;;;;;;;5.25;3.00;;;;;9.30;57.90;101627.63;4991582;28;45524;-69
2022/01/31 02:19:16;;;;;;;;;2.25;1.50;;;;;9.32;57.86;101607.25;4992359;28;45622;-69
2022/01/31 02:21:43;;;;;;;;;1.75;1.75;;;;;9.32;58.21;101610.84;4991436;27;46016;-69
2022/01/31 02:24:08;;;;;;;;;6.50;2.75;;;;;9.30;58.85;101606.28;4989295;27;45555;-70
2022/01/31 02:26:34;;;;;;;;;2.50;1.25;;;;;9.30;59.40;101606.28;4991745;27;45445;-67
2022/01/31 02:28:59;;;;;;;;;3.75;2.75;;;;;9.30;59.15;101606.28;4992072;27;45515;-68
2022/01/31 02:31:24;;;;;;;;;3.50;3.00;;;;;9.30;59.88;101592.94;4991477;28;47169;-68
2022/01/31 02:33:50;;;;;;;;;5.50;4.00;;;;;9.18;59.68;101542.66;4991305;27;45256;-68
2022/01/31 02:36:15;;;;;;;;;3.25;2.75;;;;;9.34;60.18;101566.50;4991944;27;45431;-67
2022/01/31 02:38:40;;;;;;;;;6.00;3.00;;;;;9.34;59.77;101565.59;4991866;28;45511;-69
2022/01/31 02:41:06;;;;;;;;;8.25;2.00;;;;;9.36;59.52;101563.91;4991330;28;46298;-68
2022/01/31 02:43:34;;;;;;;;;5.25;2.25;;;;;9.21;60.10;101558.78;4991172;28;45261;-65
2022/01/31 02:46:00;;;;;;;;;2.50;2.00;;;;;9.36;60.47;101556.81;4992129;27;45548;-66
2022/01/31 02:48:29;;;;;;;;;5.00;2.25;;;;;9.33;60.73;101547.75;4991680;28;45415;-67
2022/01/31 02:50:55;;;;;;;;;2.75;1.00;;;;;9.45;60.12;101555.38;4991215;27;46242;-69
2022/01/31 02:53:29;;;;;;;;;3.00;1.00;;;;;9.25;60.69;101503.84;4990716;27;45555;-67
2022/01/31 02:55:58;;;;;;;;;2.75;2.50;;;;;9.40;60.38;101532.09;4991665;28;45841;-67
2022/01/31 02:58:25;;;;;;;;;4.00;3.00;;;;;9.41;60.22;101525.00;4991370;28;45604;-69
2022/01/31 03:00:52;;;;;;;;;2.50;1.50;;;;;9.48;61.15;101552.84;4993136;27;45516;-69
2022/01/31 03:03:18;;;;;;;;;4.25;2.00;;;;;9.48;61.90;101532.41;4994302;27;45504;-67
2022/01/31 03:05:44;;;;;;;;;4.50;3.25;;;;;9.48;61.96;101531.50;4994798;27;45353;-69
2022/01/31 03:08:09;;;;;;;;;4.00;2.00;;;;;9.50;61.23;101519.16;4994742;27;45474;-67
2022/01/31 03:10:35;;;;;;;;;2.50;2.50;;;;;9.49;61.82;101518.25;4994150;27;45463;-68
2022/01/31 03:13:00;;;;;;;;;3.00;2.00;;;;;9.50;62.79;101500.47;4994095;27;45339;-69
2022/01/31 03:15:26;;;;;;;;;1.00;1.00;;;;;9.34;62.79;101481.16;4993899;27;45318;-69
2022/01/31 03:17:52;;;;;;;;;6.25;1.50;;;;;9.44;63.73;101505.53;4994083;27;45574;-69
2022/01/31 03:20:20;;;;;;;;;1.25;1.25;;;;;9.41;63.35;101503.66;4993913;27;45969;-69
2022/01/31 03:22:46;;;;;;;;;3.00;1.00;;;;;8.86;63.89;101400.88;4994033;27;45438;-69
2022/01/31 03:25:12;;;;;;;;;5.25;1.00;;;;;9.38;64.19;101504.44;4994477;28;45557;-69
2022/01/31 03:27:39;;;;;;;;;3.50;1.00;;;;;9.32;64.34;101492.59;4994122;27;45605;-67
2022/01/31 03:30:09;;;;;;;;;2.50;1.00;;;;;9.34;65.00;101502.50;4993815;28;45360;-69
2022/01/31 03:32:35;;;;;;;;;0.75;0.75;;;;;9.30;64.35;101500.53;4993766;27;45445;-70
2022/01/31 03:35:02;;;;;;;;;1.50;1.50;;;;;9.31;64.74;101498.78;4994505;28;45592;-66
2022/01/31 03:37:28;;;;;;;;;1.25;1.00;;;;;9.32;65.20;101500.59;4994712;28;45562;-68
2022/01/31 03:39:54;;;;;;;;;4.00;1.75;;;;;9.23;65.44;101469.13;4994056;27;45729;-68
2022/01/31 03:42:19;;;;;;;;;2.00;0.50;;;;;9.38;66.06;101490.19;4993720;27;45390;-69
2022/01/31 03:44:47;;;;;;;;;2.00;1.00;;;;;9.36;66.58;101471.47;4993696;27;45294;-69
2022/01/31 03:47:12;;;;;;;;;0.25;0.25;;;;;9.35;68.09;101464.28;4994319;28;45576;-69
2022/01/31 03:49:38;;;;;;;;;2.00;0.50;;;;;9.14;67.54;101421.66;4993462;27;45242;-69
2022/01/31 03:52:03;;;;;;;;;1.00;0.00;;;;;9.12;68.82;101419.75;4991091;27;45557;-68
2022/01/31 03:54:29;;;;;;;;;2.00;1.00;;;;;9.27;68.40;101440.81;4993728;27;45460;-69
2022/01/31 03:56:54;;;;;;;;;2.25;1.75;;;;;9.41;69.04;101445.91;4993718;27;45600;-68
2022/01/31 03:59:20;;;;;;;;;1.25;1.00;;;;;9.33;70.40;101431.31;4993827;28;45659;-70
2022/01/31 04:01:46;;;;;;;;;1.75;1.00;;;;;9.31;70.77;101457.03;4993459;28;45384;-70
2022/01/31 04:04:12;;;;;;;;;3.00;1.75;;;;;9.38;70.67;101480.44;4993720;27;45704;-67
2022/01/31 04:06:38;;;;;;;;;2.50;1.00;;;;;9.16;70.28;101437.72;4993749;27;45525;-68
2022/01/31 04:09:04;;;;;;;;;1.00;1.00;;;;;9.32;71.00;101460.59;4993132;27;46003;-69
2022/01/31 04:11:29;;;;;;;;;0.50;0.25;;;;;9.37;70.96;101473.28;4992521;27;45645;-68
2022/01/31 04:13:55;;;;;;;;;0.00;0.00;;;;;9.29;71.04;101469.38;4993371;27;45339;-67
2022/01/31 04:16:20;;;;;;;;;5.00;1.00;;;;;9.32;71.38;101471.25;4993860;27;45375;-69
2022/01/31 04:18:45;;;;;;;;;6.25;0.50;;;;;9.06;71.12;101431.06;4993066;27;45422;-69
2022/01/31 04:21:12;;;;;;;;;0.00;0.00;;;;;9.30;71.69;101476.53;4993981;27;45346;-68
2022/01/31 04:23:38;;;;;;;;;2.00;1.00;;;;;9.30;71.07;101483.63;4987089;28;45601;-68
2022/01/31 04:26:10;;;;;;;;;1.00;1.00;;;;;9.01;71.27;101433.53;4993649;28;45417;-69
2022/01/31 04:28:43;;;;;;;;;2.00;0.25;;;;;9.26;71.83;101487.91;5018887;28;46413;-68
2022/01/31 04:31:37;;;;;;;;;2.00;0.00;;;;;9.04;71.57;101463.00;4987760;27;45351;-69
2022/01/31 04:33:57;;;;;;;;;0.75;0.00;;;;;9.07;71.40;101442.63;4991816;28;45427;-68
2022/01/31 04:36:22;;;;;;;;;1.50;1.00;;;;;9.34;71.77;101490.94;4993467;27;45560;-69
2022/01/31 04:38:48;;;;;;;;;1.00;1.00;;;;;9.25;70.48;101477.19;4992713;27;47113;-69
2022/01/31 04:41:15;;;;;;;;;1.00;1.00;;;;;9.28;71.13;101469.31;4993020;27;45487;-69
2022/01/31 04:43:41;;;;;;;;;2.00;2.00;;;;;9.46;71.33;101493.22;4991126;28;45524;-68
2022/01/31 04:46:09;;;;;;;;;2.50;0.75;;;;;8.95;70.87;101403.03;4993671;28;45690;-69
2022/01/31 04:48:35;;;;;;;;;3.50;0.00;;;;;9.50;70.30;101492.47;4993700;27;47420;-69
2022/01/31 04:51:01;;;;;;;;;2.00;0.00;;;;;9.26;70.42;101433.69;4993889;27;45582;-67
2022/01/31 04:53:26;;;;;;;;;2.75;1.00;;;;;9.35;70.09;101447.41;4993610;28;45283;-70
2022/01/31 04:55:52;;;;;;;;;2.00;0.00;;;;;9.56;70.54;101472.31;4992780;27;45307;-67
2022/01/31 04:58:19;;;;;;;;;4.75;2.50;;;;;9.31;70.65;101432.13;4992779;28;46260;-67
2022/01/31 05:00:44;;;;;;;;;2.25;1.00;;;;;9.54;69.77;101483.78;4992813;27;45397;-69
2022/01/31 05:03:15;;;;;;;;;0.75;0.75;;;;;9.31;69.42;101448.13;4992918;27;46160;-68
2022/01/31 05:05:42;;;;;;;;;3.00;1.00;;;;;9.10;69.11;101416.13;4993018;28;45266;-69
2022/01/31 05:08:08;;;;;;;;;1.00;1.00;;;;;9.56;69.35;101488.31;4992521;27;45512;-69
2022/01/31 05:10:34;;;;;;;;;2.50;2.00;;;;;9.65;67.83;101486.88;4992379;27;45307;-69
2022/01/31 05:13:00;;;;;;;;;2.75;1.75;;;;;9.54;66.99;101473.09;4992655;28;45605;-68
2022/01/31 05:15:26;;;;;;;;;2.00;1.00;;;;;9.65;66.94;101482.47;4992760;28;45636;-69
2022/01/31 05:17:51;;;;;;;;;1.00;1.00;;;;;9.50;65.63;101458.72;4992584;28;45418;-69
2022/01/31 05:20:16;;;;;;;;;1.50;1.50;;;;;9.50;65.00;101466.72;4992770;27;45433;-70
2022/01/31 05:22:42;;;;;;;;;4.00;0.00;;;;;9.47;64.43;101455.00;4992372;28;45217;-69
2022/01/31 05:25:08;;;;;;;;;2.50;1.00;;;;;9.81;64.13;101494.69;4993280;27;45408;-69
2022/01/31 05:27:33;;;;;;;;;1.00;0.75;;;;;9.48;64.18;101432.81;4992672;28;46426;-69
2022/01/31 05:29:58;;;;;;;;;6.75;1.75;;;;;9.67;63.45;101474.50;4992169;28;45398;-69
2022/01/31 05:32:24;;;;;;;;;2.00;0.25;;;;;9.81;62.68;101493.78;4992167;27;45361;-69
2022/01/31 05:34:49;;;;;;;;;2.50;1.00;;;;;9.79;63.12;101496.38;4992666;28;45529;-68
2022/01/31 05:37:14;;;;;;;;;2.50;1.75;;;;;10.03;63.05;101509.84;4992256;28;45473;-69
2022/01/31 05:39:40;;;;;;;;;1.00;0.00;;;;;10.10;62.92;101514.56;4992202;27;45369;-67
2022/01/31 05:42:06;;;;;;;;;2.75;1.00;;;;;9.96;62.09;101489.06;4988814;28;45305;-68
2022/01/31 05:44:31;;;;;;;;;2.00;0.00;;;;;10.02;61.83;101493.75;4989206;27;45499;-67
2022/01/31 05:46:57;;;;;;;;;2.25;1.00;;;;;10.02;61.70;101478.63;4992227;28;46125;-68
2022/01/31 05:49:23;;;;;;;;;3.00;2.25;;;;;10.15;61.04;101504.97;4992051;27;45516;-69
2022/01/31 05:51:52;;;;;;;;;3.00;0.00;;;;;10.27;60.22;101525.00;4992753;28;45444;-68
2022/01/31 05:54:18;;;;;;;;;1.00;1.00;;;;;10.21;59.54;101519.41;4990382;27;45522;-69
2022/01/31 05:56:43;;;;;;;;;2.50;0.50;;;;;10.23;59.60;101523.97;4991617;27;45402;-67
2022/01/31 05:59:09;;;;;;;;;2.50;0.75;;;;;10.07;59.30;101494.84;4991503;27;45493;-68
2022/01/31 06:01:38;;;;;;;;;3.25;1.00;;;;;10.23;59.19;101515.03;4991253;28;45492;-67
2022/01/31 06:04:06;;;;;;;;;7.00;2.00;;;;;10.13;58.45;101488.00;4999393;28;45496;-68
2022/01/31 06:06:32;;;;;;;;;1.00;1.00;;;;;10.25;58.96;101510.69;4974149;28;46399;-67
2022/01/31 06:08:57;;;;;;;;;1.75;0.75;;;;;10.23;59.22;101521.31;4991886;27;45453;-67
2022/01/31 06:11:24;;;;;;;;;7.25;5.25;;;;;10.00;59.07;101492.75;4991575;28;45573;-67
2022/01/31 06:13:50;;;;;;;;;4.00;3.00;;;;;10.23;58.77;101533.72;4991255;27;45466;-67
2022/01/31 06:16:15;;;;;;;;;5.75;2.75;;;;;10.22;59.00;101530.16;4990893;28;46906;-67
2022/01/31 06:18:41;;;;;;;;;1.00;1.00;;;;;10.04;58.52;101505.41;4991805;27;45559;-68
2022/01/31 06:21:06;;;;;;;;;3.00;3.00;;;;;10.06;58.93;101520.59;4991852;27;45301;-67
2022/01/31 06:23:32;;;;;;;;;9.50;2.50;;;;;10.25;58.50;101542.75;4991369;27;45475;-68
2022/01/31 06:25:57;;;;;;;;;0.50;0.50;;;;;10.22;57.88;101540.84;4973509;28;47581;-68
2022/01/31 06:28:24;;;;;;;;;4.25;3.50;;;;;10.05;57.75;101510.81;4991288;27;45571;-67
2022/01/31 06:30:49;;;;;;;;;7.75;6.75;;;;;9.65;58.33;101453.13;4990988;27;45852;-68
2022/01/31 06:33:16;;;;;;;;;2.00;2.00;;;;;10.18;57.92;101537.97;4991580;27;45417;-68
2022/01/31 06:35:45;;;;;;;;;2.00;2.00;;;;;10.18;58.37;101540.66;4990505;27;45963;-67
2022/01/31 06:38:10;;;;;;;;;2.50;1.75;;;;;10.09;57.54;101528.75;4991637;28;45475;-69
2022/01/31 06:40:36;;;;;;;;;3.00;2.00;;;;;9.87;56.96;101480.69;4992113;28;45628;-67
2022/01/31 06:43:01;;;;;;;;;20.00;13.00;;;;;10.00;57.90;101517.72;4991652;28;45596;-67
2022/01/31 06:45:27;;;;;;;;;1.25;0.75;;;;;9.84;57.51;101488.56;4990743;27;46111;-69
2022/01/31 06:47:52;;;;;;;;;0.00;0.00;;;;;10.03;57.13;101516.91;4991246;28;45179;-68
2022/01/31 06:50:17;;;;;;;;;2.50;1.00;;;;;10.09;57.56;101544.78;4991017;28;45499;-69
2022/01/31 06:52:43;;;;;;;;;0.75;0.75;;;;;10.07;57.55;101538.47;4991351;28;45377;-70
2022/01/31 06:55:18;;;;;;;;;4.00;2.00;;;;;10.14;56.93;101532.50;4991243;27;46085;-70
2022/01/31 06:57:43;;;;;;;;;7.75;2.00;;;;;9.98;56.44;101535.41;4991120;28;45449;-68
2022/01/31 07:00:09;;;;;;;;;16.50;12.00;;;;;9.82;56.52;101499.19;4990647;28;45327;-67
2022/01/31 07:02:35;;;;;;;;;13.00;7.75;;;;;9.76;56.81;101490.91;4990949;28;45552;-67
2022/01/31 07:05:01;;;;;;;;;1.25;1.25;;;;;9.95;56.04;101548.66;4987567;27;45581;-66
2022/01/31 07:07:28;;;;;;;;;2.50;2.50;;;;;9.93;56.06;101547.66;4990719;28;45393;-67
2022/01/31 07:09:53;;;;;;;;;7.25;4.00;;;;;9.92;56.44;101559.19;4987600;28;45880;-68
2022/01/31 07:12:22;;;;;;;;;4.00;4.00;;;;;9.92;56.01;101557.44;4990752;27;45697;-67
2022/01/31 07:14:48;;;;;;;;;9.25;4.00;;;;;9.96;56.27;101555.78;4989953;28;45444;-66
2022/01/31 07:17:13;;;;;;;;;3.00;1.00;;;;;9.95;56.12;101572.69;4988118;28;46452;-69
2022/01/31 07:19:40;;;;;;;;;12.25;12.25;;;;;9.98;57.12;101570.09;4988695;28;45322;-68
2022/01/31 07:22:10;;;;;;;;;1.25;1.25;;;;;9.85;56.57;101550.03;4990108;28;45566;-67
2022/01/31 07:27:01;;;;;;;;;0.00;0.00;;;;;9.94;55.59;101584.19;5000320;28;45394;-68
2022/01/31 07:29:26;;;;;;;;;4.25;4.00;;;;;9.79;56.12;101568.44;5007953;27;45258;-67
2022/01/31 07:31:52;;;;;;;;;1.75;1.75;;;;;9.89;56.10;101589.31;5008267;28;45190;-67
2022/01/31 07:34:19;;;;;;;;;4.00;3.00;;;;;9.73;55.60;101560.16;5006729;27;46140;-67
2022/01/31 07:36:46;;;;;;;;;13.75;8.25;;;;;9.89;56.53;101591.09;5006759;28;45180;-68
2022/01/31 07:39:12;;;;;;;;;3.75;3.75;;;;;9.62;56.41;101541.03;5038149;27;45132;-69
2022/01/31 07:41:38;;;;;;;;;1.00;1.00;;;;;9.87;56.44;101572.34;4999653;28;45296;-67
2022/01/31 07:44:03;;;;;;;;;2.50;1.00;;;;;9.73;55.63;101568.16;5001242;28;45593;-67
2022/01/31 07:46:29;;;;;;;;;5.00;2.75;;;;;9.95;55.66;101591.34;4996035;27;45539;-66
2022/01/31 07:48:54;;;;;;;;;3.25;3.00;;;;;9.78;56.02;101562.19;4996086;27;45558;-69
2022/01/31 07:51:21;;;;;;;;;2.25;2.25;;;;;9.94;56.16;101597.53;4975609;28;45745;-68
2022/01/31 07:53:47;;;;;;;;;5.00;3.50;;;;;9.81;54.98;101552.50;4991896;27;46254;-68
2022/01/31 07:56:14;;;;;;;;;5.75;2.25;;;;;9.92;55.14;101578.78;4992227;27;45469;-68
2022/01/31 07:58:40;;;;;;;;;4.25;2.00;;;;;10.10;55.50;101621.38;4996043;27;45403;-66
2022/01/31 08:01:06;;;;;;;;;3.00;1.50;;;;;10.17;55.89;101608.28;4995171;28;45413;-66
2022/01/31 08:03:32;;;;;;;;;3.75;3.00;;;;;10.18;54.92;101608.34;4991228;27;45630;-68
2022/01/31 08:05:58;;;;;;;;;3.75;2.00;;;;;10.18;55.08;101620.75;4990760;27;45438;-68
2022/01/31 08:08:29;;;;;;;;;2.25;2.25;;;;;10.21;54.72;101629.81;4991028;28;45385;-67
2022/01/31 08:10:55;;;;;;;;;5.00;3.00;;;;;9.73;54.70;101544.16;4991562;27;45510;-68
2022/01/31 08:13:21;;;;;;;;;2.00;2.00;;;;;10.29;55.23;101632.81;4991131;28;45927;-67
2022/01/31 08:16:01;;;;;;;;;4.50;3.00;;;;;10.36;54.70;101634.00;4991409;27;45533;-66
2022/01/31 08:18:26;;;;;;;;;11.00;4.00;;;;;10.37;54.48;101641.19;4992368;27;45714;-67
2022/01/31 08:20:52;;;;;;;;;5.00;3.00;;;;;10.44;54.54;101636.19;4993126;28;45298;-68
2022/01/31 08:23:18;;;;;;;;;10.25;4.00;;;;;10.38;54.28;101617.22;4992275;27;45447;-69
2022/01/31 08:25:48;;;;;;;;;3.50;1.75;;;;;10.51;53.80;101646.25;4992276;27;45415;-69
2022/01/31 08:28:14;;;;;;;;;1.75;1.00;;;;;10.52;53.48;101636.47;4991620;27;45441;-69
2022/01/31 08:30:52;;;;;;;;;1.25;1.00;;;;;10.45;53.88;101613.94;4992599;27;45434;-65
2022/01/31 08:36:18;;;;;;;;;14.50;10.50;;;;;10.56;53.57;101632.16;5009468;28;45685;-67
2022/01/31 08:38:45;;;;;;;;;3.25;2.75;;;;;10.60;53.49;101634.13;4997015;28;45597;-68
2022/01/31 08:41:12;;;;;;;;;3.50;2.00;;;;;10.59;53.62;101637.63;4993191;27;45413;-68
2022/01/31 08:43:39;;;;;;;;;13.50;8.50;;;;;10.59;54.04;101626.94;4992852;27;45640;-67
2022/01/31 08:46:06;;;;;;;;;2.00;2.00;;;;;10.55;53.59;101608.97;4992397;27;45441;-70
2022/01/31 08:48:31;;;;;;;;;6.00;5.00;;;;;10.50;54.00;101612.34;4992481;28;45543;-68
2022/01/31 08:50:58;;;;;;;;;5.75;2.00;;;;;9.99;53.75;101537.22;4992888;27;45505;-69
2022/01/31 08:53:23;;;;;;;;;1.25;1.25;;;;;10.68;53.15;101648.69;4992248;27;46427;-68
2022/01/31 08:55:51;;;;;;;;;4.25;1.75;;;;;10.58;53.62;101658.09;4993072;28;45779;-69
2022/01/31 08:58:18;;;;;;;;;5.75;2.75;;;;;10.66;53.29;101678.03;4992424;27;45578;-69
2022/01/31 09:00:49;;;;;;;;;6.50;2.25;;;;;10.69;53.55;101664.81;4975895;28;45351;-68
2022/01/31 09:05:40;;;;;;;;;9.50;2.25;;;;;10.75;53.87;101655.19;4992234;27;45331;-69
2022/01/31 09:08:06;;;;;;;;;3.75;1.50;;;;;10.73;53.60;101639.09;4992432;27;45445;-68
2022/01/31 09:10:32;;;;;;;;;7.25;2.00;;;;;10.79;53.03;101636.69;4992546;27;45581;-69
2022/01/31 09:12:58;;;;;;;;;4.50;1.50;;;;;10.82;52.46;101635.88;4992329;27;45315;-68
2022/01/31 09:15:24;;;;;;;;;14.00;11.25;;;;;10.80;52.47;101638.47;4992104;27;45292;-67
2022/01/31 09:17:49;;;;;;;;;5.75;3.00;;;;;10.63;52.49;101588.81;4992099;27;45492;-67
2022/01/31 09:20:15;;;;;;;;;6.50;4.25;;;;;10.81;52.37;101623.38;4992415;27;45389;-69
2022/01/31 09:22:43;;;;;;;;;4.00;2.50;;;;;10.95;51.96;101619.47;4991655;27;46324;-68
2022/01/31 09:25:12;;;;;;;;;5.50;3.00;;;;;10.76;52.32;101584.88;4992348;28;45175;-67
2022/01/31 09:27:38;;;;;;;;;5.00;3.00;;;;;10.98;51.45;101632.06;4991703;28;45278;-68
2022/01/31 09:30:09;;;;;;;;;5.00;2.50;;;;;10.81;50.85;101618.03;4992306;27;45503;-68
2022/01/31 09:32:35;;;;;;;;;8.00;3.75;;;;;10.75;50.87;101634.72;4992007;27;46087;-68
2022/01/31 09:35:00;;;;;;;;;8.00;7.00;;;;;10.81;51.46;101648.34;4991529;28;45427;-69
2022/01/31 09:37:26;;;;;;;;;3.00;3.00;;;;;10.74;51.35;101627.56;4992029;27;45581;-66
2022/01/31 09:39:51;;;;;;;;;1.00;1.00;;;;;10.70;50.81;101620.25;4992189;27;45380;-68
2022/01/31 09:42:32;;;;;;;;;4.00;1.50;;;;;10.70;50.85;101622.94;4992014;27;46249;-69
2022/01/31 09:45:10;;;;;;;;;18.75;14.25;;;;;10.80;51.06;101635.81;4991646;27;45543;-68
2022/01/31 09:50:20;;;;;;;;;5.00;2.75;;;;;11.06;50.06;101662.69;4992010;28;45495;-69
2022/01/31 09:52:46;;;;;;;;;2.25;1.50;;;;;11.07;49.84;101653.81;4991454;27;45805;-69
2022/01/31 09:55:12;;;;;;;;;39.00;32.50;;;;;11.11;49.91;101644.13;4991724;27;45490;-69
2022/01/31 09:57:37;;;;;;;;;7.25;3.75;;;;;11.12;49.87;101665.59;4991964;27;45377;-69
2022/01/31 10:00:05;;;;;;;;;3.75;2.75;;;;;11.01;48.89;101643.78;4992449;28;45513;-68
2022/01/31 10:02:30;;;;;;;;;7.00;2.00;;;;;10.91;48.70;101625.56;4991543;27;46761;-67
2022/01/31 10:04:55;;;;;;;;;4.00;2.00;;;;;10.99;49.55;101637.47;4991477;27;45448;-67
2022/01/31 10:07:21;;;;;;;;;4.50;1.50;;;;;10.90;48.66;101646.88;4991963;27;45519;-69
2022/01/31 10:09:48;;;;;;;;;1.75;1.00;;;;;10.81;49.57;101651.00;4990611;27;45695;-68
2022/01/31 10:17:32;;;;;;;;;14.00;10.50;;;;;10.91;48.79;101673.69;4991149;28;45473;-68
2022/01/31 10:20:01;;;;;;;;;2.75;1.00;;;;;10.98;48.79;101673.06;4991709;28;45471;-68
2022/01/31 10:22:30;;;;;;;;;4.00;2.50;;;;;11.04;48.34;101669.75;4991112;28;46187;-66
2022/01/31 10:24:57;;;;;;;;;0.25;0.25;;;;;11.17;47.37;101682.72;4991304;28;45454;-68
2022/01/31 10:27:29;;;;;;;;;8.00;3.25;;;;;11.25;47.95;101694.63;4991022;27;45425;-69
2022/01/31 10:30:16;;;;;;;;;0.00;0.00;;;;;11.30;48.04;101699.25;4973499;28;45517;-68
2022/01/31 10:32:45;;;;;;;;;10.25;9.00;;;;;11.27;46.60;101672.38;4991248;28;45992;-68
2022/01/31 10:35:28;;;;;;;;;2.00;1.75;;;;;11.27;46.91;101657.25;4991145;27;45356;-71
2022/01/31 10:38:01;;;;;;;;;4.00;2.50;;;;;11.41;47.87;101695.22;4991874;27;45593;-70
2022/01/31 10:53:40;;;;;;;;;5.50;4.00;;;;;11.59;47.71;101695.00;4990293;27;46183;-71
2022/01/31 10:56:05;;;;;;;;;5.25;2.50;;;;;11.46;47.69;101666.88;4990685;27;45507;-69
2022/01/31 10:58:30;;;;;;;;;4.75;2.00;;;;;11.50;46.77;101666.16;4990462;27;45393;-69
2022/01/31 11:01:11;;;;;;;;;3.50;1.00;;;;;11.76;46.65;101700.97;4991540;27;45567;-69
2022/01/31 11:03:36;;;;;;;;;6.00;4.50;;;;;11.84;46.77;101704.84;4990429;28;45998;-70
2022/01/31 11:06:08;;;;;;;;;3.00;3.00;;;;;11.86;45.59;101703.13;4990554;28;45351;-69
2022/01/31 11:08:33;;;;;;;;;2.00;1.00;;;;;11.72;45.11;101678.53;4990512;28;45462;-69
2022/01/31 11:10:59;;;;;;;;;2.00;2.00;;;;;11.77;44.36;101670.69;4991189;28;45455;-69
2022/01/31 11:13:26;;;;;;;;;6.50;2.00;;;;;11.76;44.17;101663.50;4990757;27;45455;-71
2022/01/31 11:15:55;;;;;;;;;9.50;6.00;;;;;11.79;44.53;101664.50;4990062;27;45381;-69
2022/01/31 11:18:22;;;;;;;;;4.00;4.00;;;;;11.96;44.00;101677.63;4990365;28;45394;-69
2022/01/31 11:20:56;;;;;;;;;11.50;6.25;;;;;12.01;44.03;101699.22;4991285;28;45515;-69
2022/01/31 11:23:28;;;;;;;;;3.75;3.00;;;;;11.90;44.33;101683.66;4992798;28;46424;-70
2022/01/31 11:25:57;;;;;;;;;2.00;2.00;;;;;11.97;42.61;101703.56;4993308;27;45479;-68
2022/01/31 11:28:23;;;;;;;;;4.00;4.00;;;;;11.91;44.01;101706.94;4993375;27;45441;-70
2022/01/31 11:30:48;;;;;;;;;0.50;0.50;;;;;11.84;42.43;101709.28;4993810;27;45452;-71
2022/01/31 11:33:15;;;;;;;;;1.00;1.00;;;;;11.82;44.23;101713.69;4992925;27;45981;-69
2022/01/31 11:35:41;;;;;;;;;1.50;1.00;;;;;11.68;46.20;101681.03;4993763;27;45382;-69
2022/01/31 11:38:10;;;;;;;;;3.00;3.00;;;;;11.85;47.19;101709.34;4993803;27;45514;-69
2022/01/31 11:40:36;;;;;;;;;8.75;6.50;;;;;11.83;46.73;101716.44;4993308;27;45633;-69
2022/01/31 11:43:03;;;;;;;;;26.00;21.75;;;;;11.82;47.54;101716.38;4992882;28;48114;-68
2022/01/31 11:45:33;;;;;;;;;1.75;1.50;;;;;11.60;48.01;101691.50;4993512;27;45598;-70
2022/01/31 11:48:04;;;;;;;;;2.50;2.50;;;;;11.85;47.06;101720.06;4993153;27;45540;-67
2022/01/31 11:50:30;;;;;;;;;2.25;2.00;;;;;11.77;47.17;101698.34;4993545;28;45627;-70
2022/01/31 11:53:01;;;;;;;;;4.00;4.00;;;;;11.92;47.40;101706.06;4992813;27;45264;-71
2022/01/31 11:55:32;;;;;;;;;2.75;2.25;;;;;11.97;46.88;101738.38;4992969;27;45557;-70
2022/01/31 11:57:58;;;;;;;;;4.00;3.00;;;;;11.78;47.42;101737.69;4993373;27;45374;-71